Погода Сан-Мигель-Айендена неделю

Гуанахуато, Мексика

03 - 09 марта
  • 03марта
    Сегодня
    +12°
    +30°
    Ясно и безоблачно
    ВремяПогодаТемператураВлажностьДавлениеВетер, м/сВероятность осадков
    00:00Ясно и безоблачно+19°C37 %615 мм3.3 м/с2 %
    03:00Ясно и безоблачно+16°C41 %614 мм2.3 м/с2 %
    06:00Ясно и безоблачно+14°C46 %613 мм2.3 м/с2 %
    09:00Ясно и безоблачно+17°C36 %616 мм2.8 м/с2 %
    12:00Ясно и безоблачно+24°C23 %617 мм4.8 м/с2 %
    15:00Ясно и безоблачно+29°C15 %615 мм5.0 м/с2 %
    18:00Ясно и безоблачно+29°C13 %614 мм4.6 м/с2 %
    21:00Ясно и безоблачно+22°C23 %614 мм3.5 м/с2 %
  • 04марта
    Понедельник
    +12°
    +30°
    Ясно и безоблачно
    ВремяПогодаТемператураВлажностьДавлениеВетер, м/сВероятность осадков
    00:00Ясно и безоблачно+18°C41 %614 мм2.9 м/с2 %
    03:00Ясно и безоблачно+16°C41 %613 мм2.4 м/с2 %
    06:00Ясно и безоблачно+13°C50 %612 мм2.7 м/с2 %
    09:00Ясно и безоблачно+16°C39 %614 мм3.2 м/с2 %
    12:00Практически безоблачно+24°C24 %616 мм4.5 м/с2 %
    15:00Ясно и безоблачно+29°C17 %614 мм4.9 м/с2 %
    18:00Ясно и безоблачно+29°C13 %613 мм5.5 м/с2 %
    21:00Ясно и безоблачно+22°C29 %614 мм4.7 м/с2 %
  • 05марта
    Вторник
    +11°
    +29°
    Ясно и безоблачно
    ВремяПогодаТемператураВлажностьДавлениеВетер, м/сВероятность осадков
    00:00Облачно с прояснениями+18°C36 %614 мм2.8 м/с2 %
    03:00Ясно и безоблачно+15°C37 %612 мм2.1 м/с2 %
    06:00Практически безоблачно+14°C41 %612 мм1.9 м/с2 %
    09:00Практически безоблачно+17°C30 %614 мм2.2 м/с2 %
    12:00Облачно с прояснениями+25°C15 %616 мм4.5 м/с2 %
    15:00Ясно и безоблачно+29°C9 %614 мм5.2 м/с2 %
    18:00Ясно и безоблачно+28°C11 %614 мм4.0 м/с2 %
    21:00Практически безоблачно+20°C15 %612 мм1.9 м/с2 %
  • 06марта
    Среда
    +14°
    +31°
    Ясно и безоблачно
    ВремяПогодаТемператураВлажностьДавлениеВетер, м/сВероятность осадков
    00:00Небольшая облачность+19°C22 %612 мм1.9 м/с2 %
    03:00Небольшая облачность+16°C35 %611 мм1.8 м/с2 %
    06:00Ясно и безоблачно+13°C52 %611 мм1.0 м/с2 %
    09:00Ясно и безоблачно+16°C31 %614 мм1.2 м/с2 %
    12:00Ясно и безоблачно+25°C16 %616 мм3.4 м/с2 %
    15:00Ясно и безоблачно+30°C12 %615 мм3.8 м/с2 %
    18:00Практически безоблачно+30°C13 %614 мм2.9 м/с2 %
    21:00Ясно и безоблачно+23°C25 %614 мм3.8 м/с2 %
  • 07марта
    Четверг
    +13°
    +30°
    Ясно и безоблачно
    ВремяПогодаТемператураВлажностьДавлениеВетер, м/сВероятность осадков
    00:00Ясно и безоблачно+20°C31 %613 мм2.9 м/с2 %
    03:00Ясно и безоблачно+17°C38 %612 мм2.6 м/с2 %
    06:00Ясно и безоблачно+15°C45 %611 мм2.4 м/с2 %
    09:00Ясно и безоблачно+17°C36 %614 мм2.4 м/с2 %
    12:00Ясно и безоблачно+25°C21 %616 мм5.1 м/с2 %
    15:00Ясно и безоблачно+29°C14 %614 мм5.9 м/с2 %
    18:00Ясно и безоблачно+29°C13 %614 мм5.6 м/с2 %
    21:00Облачно с прояснениями+22°C14 %613 мм5.0 м/с2 %
Мы используем cookies
Соглашаюсь